Pagrindinis puslapis
METAR-TAF:

METAR-TAF

Oro uostai :

Hua Hin, Tailandas

platuma: 12-35N, ilguma: 099-57E, Aukštis: 5 m

Dabartinis oras

Ataskaita buvo paskelbta 44 minutes, ne 01:00 UTC
Vėjas 5 kt iš Šiaurės/Šiaurės Vakarų, svyruoja nuo Vakarų ir Šiaurės Rytų
Temperatūra 26°C
Drėgmė 70%
Slėgis 1013 hPa
Matomumas 10 km arba daugiau
Mažai debesys ne aukštis 4500 ft

METAR: VTPH 290100Z 34005KT 280V040 9999 FEW045 26/20 Q1013 NOSIG

Laikas: 08:44 (01:44 UTC)

Prognozė

Ataskaita buvo paskelbta 2 valandos ir 44 minutes, ne 23:00 UTC
Prognozė galioja nuo 29 metu 00 UTC su 29 metu 24 UTC
Vėjas 4 kt iš Šiaurės/Šiaurės Vakarų
Matomumas 10 km arba daugiau
Mažai debesys ne aukštis 2000 ft
Tapsmas
nuo 29 metu 03 UTC su 29 metu 05 UTC
Vėjas 13 kt iš Šiaurės/Šiaurės Rytų
Tapsmas
nuo 29 metu 13 UTC su 29 metu 15 UTC
Vėjas 4 kt iš Šiaurės/Šiaurės Vakarų

TAF: VTPH 282300Z 2900/2924 33004KT 9999 FEW020 BECMG 2903/2905 03013KT BECMG 2913/2915 33004KT

Orai ataskaitas ir orų prognozės (METAR, TAF).

turimą stotys yra geltonos ir raudonos taškus žemėlapyje.

Perkelti pele per norėdami pamatyti stoties vardą.

Tada spustelėkite, norėdami matyti oro stebėjimo ir prognozės.

Norėdami pakeisti žemėlapį: spustelėkite ant žalios mygtukų su juodo kryžiaus žemyn,; žalią mygtuką su brūkšneliu, jei norite nutolinti; arba žalių rodyklių gretimoms žemėlapius.


METAR-TAF: